createdAt,value
2019-03-29T00:00:34.262Z,97459.20
2019-03-29T00:03:01.308Z,97458.38
2019-03-29T00:05:28.682Z,97460.39
2019-03-29T00:07:55.749Z,97455.19
2019-03-29T00:10:23.099Z,97453.30
2019-03-29T00:12:50.148Z,97456.88
2019-03-29T00:15:17.490Z,97463.38
2019-03-29T00:17:44.861Z,97459.00
2019-03-29T00:20:11.885Z,97458.16
2019-03-29T00:22:39.247Z,97465.83
2019-03-29T00:25:07.090Z,97462.05
2019-03-29T00:27:34.589Z,97466.75
2019-03-29T00:30:01.926Z,97466.02
2019-03-29T00:32:29.156Z,97466.47
2019-03-29T00:34:56.188Z,97458.31
2019-03-29T00:37:23.228Z,97457.72
2019-03-29T00:39:50.259Z,97453.91
2019-03-29T00:42:17.389Z,97448.45
2019-03-29T00:44:44.419Z,97449.03
2019-03-29T00:47:11.469Z,97448.43
2019-03-29T00:49:38.505Z,97446.64
2019-03-29T00:52:05.872Z,97452.42
2019-03-29T00:54:32.917Z,97451.70
2019-03-29T00:57:00.270Z,97449.81
2019-03-29T00:59:27.323Z,97442.36
2019-03-29T01:01:54.678Z,97452.17
2019-03-29T01:04:21.730Z,97448.05
2019-03-29T01:06:48.794Z,97440.12
2019-03-29T01:09:15.827Z,97436.91
2019-03-29T01:11:42.880Z,97435.95
2019-03-29T01:14:10.222Z,97436.77
2019-03-29T01:16:37.505Z,97440.06
2019-03-29T01:19:04.557Z,97439.45
2019-03-29T01:21:31.839Z,97438.45
2019-03-29T01:23:58.890Z,97445.64
2019-03-29T01:26:27.049Z,97441.96
2019-03-29T01:28:54.384Z,97442.43
2019-03-29T01:31:21.404Z,97444.56
2019-03-29T01:33:48.450Z,97443.62
2019-03-29T01:36:15.806Z,97441.71
2019-03-29T01:38:42.856Z,97433.92
2019-03-29T01:41:09.889Z,97435.80
2019-03-29T01:43:36.955Z,97440.16
2019-03-29T01:46:03.979Z,97437.53
2019-03-29T01:48:31.029Z,97437.39
2019-03-29T01:50:58.138Z,97442.91
2019-03-29T01:53:25.362Z,97436.41
2019-03-29T01:55:52.698Z,97436.16
2019-03-29T01:58:19.830Z,97437.56
2019-03-29T02:00:47.019Z,97438.00
2019-03-29T02:03:14.388Z,97443.98
2019-03-29T02:05:41.427Z,97433.75
2019-03-29T02:08:08.482Z,97425.59
2019-03-29T02:10:35.808Z,97435.73
2019-03-29T02:13:02.845Z,97436.70
2019-03-29T02:15:29.889Z,97430.79
2019-03-29T02:17:57.273Z,97431.84
2019-03-29T02:20:25.296Z,97423.33
2019-03-29T02:22:52.332Z,97414.72
2019-03-29T02:25:19.377Z,97418.03
2019-03-29T02:27:46.684Z,97415.55
2019-03-29T02:30:14.035Z,97409.05
2019-03-29T02:32:41.077Z,97414.82
2019-03-29T02:35:08.466Z,97412.23
2019-03-29T02:37:35.562Z,97409.37
2019-03-29T02:40:02.617Z,97411.76
2019-03-29T02:42:29.907Z,97412.80
2019-03-29T02:44:57.243Z,97413.73
2019-03-29T02:47:24.533Z,97407.25
2019-03-29T02:49:52.661Z,97404.51
2019-03-29T02:52:19.697Z,97401.98
2019-03-29T02:54:47.210Z,97400.57
2019-03-29T02:57:14.537Z,97398.41
2019-03-29T02:59:41.587Z,97392.45
2019-03-29T03:02:09.960Z,97397.06
2019-03-29T03:04:37.014Z,97398.25
2019-03-29T03:07:19.478Z,97398.94
2019-03-29T03:09:46.520Z,97395.52
2019-03-29T03:12:13.560Z,97403.50
2019-03-29T03:14:41.926Z,97399.83
2019-03-29T03:17:09.040Z,97398.69
2019-03-29T03:19:36.394Z,97398.08
2019-03-29T03:22:03.462Z,97401.23
2019-03-29T03:24:30.474Z,97396.16
2019-03-29T03:26:57.874Z,97397.56
2019-03-29T03:29:24.947Z,97397.41
2019-03-29T03:31:52.260Z,97396.94
2019-03-29T03:34:19.311Z,97391.08
2019-03-29T03:36:46.650Z,97392.12
2019-03-29T03:39:30.730Z,97398.76
2019-03-29T03:41:43.028Z,97395.63
2019-03-29T03:44:10.131Z,97391.83
2019-03-29T03:46:37.297Z,97395.04
2019-03-29T03:49:04.552Z,97391.09
2019-03-29T03:51:31.678Z,97389.27
2019-03-29T03:53:58.789Z,97389.31
2019-03-29T03:56:25.853Z,97397.81
2019-03-29T03:58:53.359Z,97393.23
2019-03-29T04:01:20.755Z,97389.28
2019-03-29T04:03:47.863Z,97389.02
2019-03-29T04:06:15.258Z,97390.78
2019-03-29T04:08:42.275Z,97384.84
2019-03-29T04:13:47.575Z,97392.48
2019-03-29T04:16:14.985Z,97387.99
2019-03-29T04:18:42.031Z,97392.73
2019-03-29T04:21:09.081Z,97387.78
2019-03-29T04:23:36.119Z,97390.11
2019-03-29T04:26:03.484Z,97389.01
2019-03-29T04:28:30.531Z,97392.63
2019-03-29T04:30:57.594Z,97392.36
2019-03-29T04:33:24.645Z,97394.63
2019-03-29T04:35:51.751Z,97399.00
2019-03-29T04:38:19.152Z,97396.89
2019-03-29T04:40:46.463Z,97390.25
2019-03-29T04:43:13.496Z,97398.65
2019-03-29T04:45:40.569Z,97400.66
2019-03-29T04:48:08.159Z,97398.05
2019-03-29T04:50:35.254Z,97398.03
2019-03-29T04:53:02.328Z,97400.48
2019-03-29T04:55:29.715Z,97394.65
2019-03-29T04:57:56.759Z,97393.70
2019-03-29T05:00:23.813Z,97393.11
2019-03-29T05:02:50.855Z,97396.39
2019-03-29T05:05:17.913Z,97395.63
2019-03-29T05:07:44.951Z,97396.63
2019-03-29T05:10:20.924Z,97401.34
2019-03-29T05:12:41.388Z,97404.19
2019-03-29T05:15:08.454Z,97399.17
2019-03-29T05:17:35.786Z,97402.99
2019-03-29T05:20:03.148Z,97392.23
2019-03-29T05:22:30.441Z,97387.94
2019-03-29T05:24:57.476Z,97396.23
2019-03-29T05:27:24.530Z,97395.82
2019-03-29T05:29:51.643Z,97402.36
2019-03-29T05:32:18.690Z,97403.45
2019-03-29T05:34:45.730Z,97403.66
2019-03-29T05:37:12.786Z,97406.98
2019-03-29T05:39:40.160Z,97407.36
2019-03-29T05:42:07.515Z,97412.59
2019-03-29T05:44:34.560Z,97411.82
2019-03-29T05:47:01.686Z,97417.63
2019-03-29T05:49:28.731Z,97412.02
2019-03-29T05:51:55.782Z,97414.19
2019-03-29T05:54:22.821Z,97412.58
2019-03-29T05:56:50.193Z,97409.78
2019-03-29T05:59:17.230Z,97402.20
2019-03-29T06:01:44.291Z,97403.34
2019-03-29T06:04:11.329Z,97400.78
2019-03-29T06:06:38.691Z,97396.69
2019-03-29T06:09:05.726Z,97400.05
2019-03-29T06:11:32.781Z,97393.91
2019-03-29T06:13:59.817Z,97389.31
2019-03-29T06:16:38.436Z,97392.48
2019-03-29T06:18:55.895Z,97390.28
2019-03-29T06:21:23.247Z,97382.53
2019-03-29T06:23:51.352Z,97377.40
2019-03-29T06:26:19.480Z,97374.91
2019-03-29T06:28:46.513Z,97374.31
2019-03-29T06:31:14.538Z,97374.91
2019-03-29T06:33:44.399Z,97375.02
2019-03-29T06:36:10.413Z,97374.33
2019-03-29T06:38:37.793Z,97379.19
2019-03-29T06:41:04.843Z,97373.25
2019-03-29T06:43:31.879Z,97378.33
2019-03-29T06:45:58.917Z,97377.50
2019-03-29T06:48:25.971Z,97386.60
2019-03-29T06:50:53.186Z,97379.92
2019-03-29T06:53:20.444Z,97375.02
2019-03-29T06:55:50.699Z,97370.71
2019-03-29T06:58:18.065Z,97368.80
2019-03-29T07:00:46.674Z,97365.48
2019-03-29T07:03:13.935Z,97373.91
2019-03-29T07:05:40.983Z,97367.89
2019-03-29T07:08:08.035Z,97363.39
2019-03-29T07:10:35.077Z,97362.45
2019-03-29T07:13:02.418Z,97364.53
2019-03-29T07:15:29.462Z,97361.89
2019-03-29T07:17:56.514Z,97362.39
2019-03-29T07:20:23.551Z,97364.20
2019-03-29T07:22:50.899Z,97362.36
2019-03-29T07:25:17.940Z,97364.80
2019-03-29T07:27:51.891Z,97365.47
2019-03-29T07:30:14.092Z,97359.14
2019-03-29T07:32:41.158Z,97355.49
2019-03-29T07:35:08.204Z,97356.77
2019-03-29T07:37:36.326Z,97356.98
2019-03-29T07:40:03.380Z,97367.41
2019-03-29T07:42:30.437Z,97360.95
2019-03-29T07:44:58.547Z,97355.16
2019-03-29T07:47:25.883Z,97349.08
2019-03-29T07:49:52.995Z,97352.05
2019-03-29T07:52:20.047Z,97347.23
2019-03-29T07:54:47.094Z,97357.89
2019-03-29T07:57:14.147Z,97361.69
2019-03-29T07:59:41.190Z,97352.32
2019-03-29T08:02:08.249Z,97352.95
2019-03-29T08:04:35.294Z,97356.08
2019-03-29T08:07:02.351Z,97349.62
2019-03-29T08:09:29.387Z,97350.62
2019-03-29T08:11:56.774Z,97342.02
2019-03-29T08:14:23.820Z,97348.02
2019-03-29T08:16:50.874Z,97353.80
2019-03-29T08:19:17.921Z,97356.97
2019-03-29T08:21:45.271Z,97349.11
2019-03-29T08:24:12.634Z,97350.45
2019-03-29T08:26:40.014Z,97351.70
2019-03-29T08:29:07.356Z,97345.41
2019-03-29T08:31:34.393Z,97353.80
2019-03-29T08:34:01.458Z,97345.30
2019-03-29T08:36:28.668Z,97344.53
2019-03-29T08:38:56.059Z,97335.89
2019-03-29T08:41:23.398Z,97345.23
2019-03-29T08:43:50.450Z,97346.92
2019-03-29T08:46:18.566Z,97346.81
2019-03-29T08:48:45.976Z,97345.53
2019-03-29T08:51:13.022Z,97344.07
2019-03-29T08:53:40.090Z,97342.86
2019-03-29T08:56:07.136Z,97332.48
2019-03-29T08:58:34.475Z,97339.72
2019-03-29T09:01:01.521Z,97343.56
2019-03-29T09:03:28.588Z,97340.73
2019-03-29T09:05:55.636Z,97346.05
2019-03-29T09:08:23.763Z,97347.11
2019-03-29T09:10:50.807Z,97349.67
2019-03-29T09:13:18.204Z,97342.70
2019-03-29T09:15:45.573Z,97333.70
2019-03-29T09:18:12.626Z,97331.55
2019-03-29T09:20:39.951Z,97325.19
2019-03-29T09:23:10.323Z,97328.69
2019-03-29T09:25:36.050Z,97330.84
2019-03-29T09:28:03.473Z,97317.11
2019-03-29T09:30:30.807Z,97325.03
2019-03-29T09:32:57.862Z,97323.13
2019-03-29T09:35:25.211Z,97325.37
2019-03-29T09:37:52.267Z,97320.42
2019-03-29T09:40:19.312Z,97316.93
2019-03-29T09:42:46.365Z,97314.78
2019-03-29T09:45:13.409Z,97320.49
2019-03-29T09:47:41.026Z,97312.03
2019-03-29T09:50:10.322Z,97312.36
2019-03-29T09:52:37.276Z,97313.38
2019-03-29T09:55:04.327Z,97309.14
2019-03-29T09:57:37.376Z,97304.45
2019-03-29T10:00:00.534Z,97302.39
2019-03-29T10:02:27.591Z,97302.39
2019-03-29T10:04:54.637Z,97300.69
2019-03-29T10:07:21.680Z,97302.30
2019-03-29T10:09:48.817Z,97299.67
2019-03-29T10:12:16.933Z,97295.92
2019-03-29T10:14:43.983Z,97297.91
2019-03-29T10:17:11.379Z,97297.75
2019-03-29T10:19:38.436Z,97293.37
2019-03-29T10:22:05.477Z,97306.53
2019-03-29T10:24:32.533Z,97300.98
2019-03-29T10:26:59.580Z,97292.84
2019-03-29T10:29:26.632Z,97289.41
2019-03-29T10:31:53.972Z,97294.28
2019-03-29T10:34:21.321Z,97291.66
2019-03-29T10:36:48.606Z,97302.19
2019-03-29T10:39:15.658Z,97290.70
2019-03-29T10:41:42.693Z,97301.67
2019-03-29T10:44:09.747Z,97295.78
2019-03-29T10:46:37.855Z,97293.14
2019-03-29T10:49:04.915Z,97293.63
2019-03-29T10:51:32.298Z,97295.16
2019-03-29T10:53:59.669Z,97302.89
2019-03-29T10:56:33.871Z,97293.82
2019-03-29T10:58:56.424Z,97287.37
2019-03-29T11:01:24.966Z,97283.19
2019-03-29T11:03:52.044Z,97286.49
2019-03-29T11:06:20.049Z,97295.15
2019-03-29T11:08:47.186Z,97282.94
2019-03-29T11:11:14.231Z,97282.00
2019-03-29T11:13:41.449Z,97275.22
2019-03-29T11:16:08.509Z,97269.34
2019-03-29T11:18:35.868Z,97270.81
2019-03-29T11:21:02.919Z,97270.34
2019-03-29T11:23:30.288Z,97270.95
2019-03-29T11:25:57.341Z,97266.37
2019-03-29T11:28:24.671Z,97261.45
2019-03-29T11:30:51.730Z,97268.89
2019-03-29T11:33:19.092Z,97261.89
2019-03-29T11:35:46.147Z,97262.89
2019-03-29T11:38:13.192Z,97258.80
2019-03-29T11:40:40.253Z,97263.88
2019-03-29T11:43:07.284Z,97268.61
2019-03-29T11:45:34.415Z,97258.69
2019-03-29T11:48:08.130Z,97247.77
2019-03-29T11:50:30.481Z,97246.95
2019-03-29T11:52:57.523Z,97244.70
2019-03-29T11:55:24.576Z,97241.52
2019-03-29T11:57:51.691Z,97238.95
2019-03-29T12:00:19.057Z,97238.65
2019-03-29T12:02:46.162Z,97236.75
2019-03-29T12:05:13.221Z,97231.64
2019-03-29T12:07:40.253Z,97226.61
2019-03-29T12:10:07.307Z,97225.31
2019-03-29T12:12:34.341Z,97224.94
2019-03-29T12:15:01.397Z,97227.31
2019-03-29T12:17:30.150Z,97225.46
2019-03-29T12:19:57.201Z,97224.69
2019-03-29T12:22:24.540Z,97220.52
2019-03-29T12:24:51.893Z,97213.86
2019-03-29T12:27:18.939Z,97215.77
2019-03-29T12:29:46.296Z,97214.84
2019-03-29T12:32:13.334Z,97205.93
2019-03-29T12:34:40.379Z,97210.95
2019-03-29T12:37:07.766Z,97218.86
2019-03-29T12:39:35.101Z,97209.53
2019-03-29T12:42:04.113Z,97202.70
2019-03-29T12:44:31.149Z,97201.66
2019-03-29T12:46:58.197Z,97202.73
2019-03-29T12:49:26.569Z,97196.20
2019-03-29T12:51:53.619Z,97186.06
2019-03-29T12:54:20.975Z,97191.75
2019-03-29T12:56:48.345Z,97196.90
2019-03-29T12:59:15.641Z,97190.59
2019-03-29T13:01:43.058Z,97195.87
2019-03-29T13:04:10.099Z,97188.98
2019-03-29T13:06:37.462Z,97187.92
2019-03-29T13:09:04.496Z,97177.94
2019-03-29T13:11:32.050Z,97178.91
2019-03-29T13:14:10.082Z,97177.21
2019-03-29T13:16:28.799Z,97176.36
2019-03-29T13:18:55.840Z,97167.60
2019-03-29T13:21:23.218Z,97165.20
2019-03-29T13:23:50.252Z,97158.60
2019-03-29T13:26:17.300Z,97168.22
2019-03-29T13:28:44.330Z,97158.02
2019-03-29T13:31:11.391Z,97142.80
2019-03-29T13:33:38.433Z,97154.73
2019-03-29T13:36:05.486Z,97140.33
2019-03-29T13:38:32.532Z,97145.84
2019-03-29T13:40:59.905Z,97133.62
2019-03-29T13:43:26.942Z,97131.88
2019-03-29T13:45:54.033Z,97129.00
2019-03-29T13:48:21.052Z,97136.98
2019-03-29T13:50:48.103Z,97121.95
2019-03-29T13:53:15.141Z,97122.80
2019-03-29T13:55:42.203Z,97120.34
2019-03-29T13:58:09.251Z,97116.88
2019-03-29T14:00:36.550Z,97105.19
2019-03-29T14:03:03.591Z,97107.48
2019-03-29T14:05:30.639Z,97098.56
2019-03-29T14:07:57.749Z,97106.81
2019-03-29T14:10:24.810Z,97100.91
2019-03-29T14:12:51.850Z,97103.72
2019-03-29T14:15:19.186Z,97098.29
2019-03-29T14:17:46.244Z,97098.98
2019-03-29T14:20:13.295Z,97091.28
2019-03-29T14:22:40.656Z,97088.95
2019-03-29T14:25:07.697Z,97084.82
2019-03-29T14:27:35.044Z,97079.52
2019-03-29T14:30:04.738Z,97081.63
2019-03-29T14:32:31.496Z,97076.34
2019-03-29T14:34:58.975Z,97069.45
2019-03-29T14:37:26.027Z,97072.95
2019-03-29T14:39:54.480Z,97069.35
2019-03-29T14:42:21.535Z,97062.47
2019-03-29T14:44:52.798Z,97060.46
2019-03-29T14:47:17.574Z,97062.25
2019-03-29T14:49:44.615Z,97058.45
2019-03-29T14:52:11.670Z,97051.08
2019-03-29T14:54:38.711Z,97049.45
2019-03-29T14:57:06.089Z,97048.67
2019-03-29T14:59:33.423Z,97043.45
2019-03-29T15:02:00.486Z,97042.59
2019-03-29T15:04:27.518Z,97036.34
2019-03-29T15:06:54.890Z,97040.91
2019-03-29T15:09:22.234Z,97043.22
2019-03-29T15:11:49.602Z,97033.72
2019-03-29T15:14:16.649Z,97033.61
2019-03-29T15:16:44.006Z,97033.44
2019-03-29T15:19:11.051Z,97026.88
2019-03-29T15:21:42.725Z,97021.59
2019-03-29T15:24:09.698Z,97032.34
2019-03-29T15:26:36.754Z,97019.85
2019-03-29T15:29:03.793Z,97016.55
2019-03-29T15:31:30.847Z,97025.61
2019-03-29T15:33:57.895Z,97018.86
2019-03-29T15:36:24.945Z,97028.41
2019-03-29T15:38:51.985Z,97017.91
2019-03-29T15:41:19.062Z,97021.20
2019-03-29T15:43:46.447Z,97020.70
2019-03-29T15:46:13.488Z,97022.69
2019-03-29T15:48:40.548Z,97024.65
2019-03-29T15:51:07.596Z,97024.00
2019-03-29T15:53:34.648Z,97019.90
2019-03-29T15:56:01.816Z,97013.19
2019-03-29T15:58:28.850Z,97014.84
2019-03-29T16:00:55.900Z,97015.34
2019-03-29T16:03:23.030Z,97013.36
2019-03-29T16:05:50.077Z,97017.79
2019-03-29T16:08:18.205Z,97015.02
2019-03-29T16:10:45.243Z,97008.12
2019-03-29T16:13:12.299Z,97007.45
2019-03-29T16:15:39.609Z,97009.92
2019-03-29T16:18:06.943Z,97005.33
2019-03-29T16:20:33.985Z,97000.10
2019-03-29T16:23:01.357Z,97005.02
2019-03-29T16:25:28.387Z,97001.92
2019-03-29T16:27:55.448Z,96996.73
2019-03-29T16:30:22.492Z,97002.15
2019-03-29T16:32:49.968Z,97001.16
2019-03-29T16:35:17.021Z,96996.23
2019-03-29T16:37:56.568Z,96995.10
2019-03-29T16:40:13.097Z,96998.06
2019-03-29T16:42:40.152Z,96999.23
2019-03-29T16:45:07.191Z,97001.52
2019-03-29T16:47:35.352Z,97001.17
2019-03-29T16:50:02.358Z,96997.41
2019-03-29T16:52:29.690Z,97000.07
2019-03-29T16:54:57.064Z,96999.09
2019-03-29T16:57:24.699Z,96996.80
2019-03-29T16:59:52.212Z,96994.82
2019-03-29T17:02:19.328Z,96996.13
2019-03-29T17:04:46.454Z,96994.15
2019-03-29T17:07:13.742Z,96996.12
2019-03-29T17:09:40.979Z,96994.00
2019-03-29T17:12:08.183Z,96992.02
2019-03-29T17:14:35.245Z,96994.47
2019-03-29T17:17:02.284Z,96992.30
2019-03-29T17:19:29.346Z,96997.52
2019-03-29T17:21:56.394Z,97002.27
2019-03-29T17:24:23.735Z,97000.78
2019-03-29T17:26:54.111Z,96992.91
2019-03-29T17:29:20.040Z,97002.22
2019-03-29T17:31:47.116Z,96997.06
2019-03-29T17:34:14.178Z,96998.67
2019-03-29T17:36:41.237Z,96998.30
2019-03-29T17:39:08.290Z,96999.23
2019-03-29T17:41:35.603Z,97007.08
2019-03-29T17:44:02.662Z,97002.44
2019-03-29T17:46:29.704Z,96999.45
2019-03-29T17:48:56.764Z,96996.30
2019-03-29T17:51:23.811Z,96997.37
2019-03-29T17:53:50.874Z,97001.91
2019-03-29T17:56:18.989Z,97001.73
2019-03-29T17:58:46.052Z,97011.69
2019-03-29T18:01:13.101Z,97004.47
2019-03-29T18:03:40.161Z,97011.02
2019-03-29T18:06:07.214Z,97010.04
2019-03-29T18:08:34.280Z,97014.57
2019-03-29T18:11:01.328Z,97015.51
2019-03-29T18:13:28.376Z,97008.59
2019-03-29T18:15:55.465Z,97011.70
2019-03-29T18:18:22.515Z,97018.51
2019-03-29T18:20:49.887Z,97017.16
2019-03-29T18:23:17.243Z,97020.86
2019-03-29T18:25:44.311Z,97014.58
2019-03-29T18:28:11.358Z,97010.91
2019-03-29T18:30:38.426Z,97017.41
2019-03-29T18:33:05.482Z,97014.85
2019-03-29T18:35:32.892Z,97017.83
2019-03-29T18:38:00.349Z,97024.42
2019-03-29T18:40:27.578Z,97019.59
2019-03-29T18:42:56.235Z,97019.00
2019-03-29T18:45:23.289Z,97017.15
2019-03-29T18:47:50.343Z,97022.13
2019-03-29T18:50:17.394Z,97021.64
2019-03-29T18:52:44.440Z,97024.41
2019-03-29T18:55:14.748Z,97021.79
2019-03-29T18:57:41.798Z,97018.98
2019-03-29T19:00:08.877Z,97026.96
2019-03-29T19:02:45.196Z,97029.52
2019-03-29T19:05:12.254Z,97026.38
2019-03-29T19:07:40.419Z,97027.48
2019-03-29T19:10:12.497Z,97020.70
2019-03-29T19:12:46.492Z,97021.19
2019-03-29T19:17:57.983Z,97032.45
2019-03-29T19:20:27.682Z,97023.55
2019-03-29T19:22:55.796Z,97030.30
2019-03-29T19:25:23.977Z,97029.66
2019-03-29T19:27:52.233Z,97025.73
2019-03-29T19:30:19.504Z,97028.97
2019-03-29T19:32:49.769Z,97020.73
2019-03-29T19:35:16.981Z,97023.06
2019-03-29T19:37:52.515Z,97019.20
2019-03-29T19:40:20.797Z,97024.08
2019-03-29T19:42:48.132Z,97016.27
2019-03-29T19:48:05.885Z,97017.82
2019-03-29T19:50:32.959Z,97016.03
2019-03-29T19:53:06.027Z,97017.14
2019-03-29T19:55:35.245Z,97011.09
2019-03-29T19:58:04.477Z,97015.10
2019-03-29T20:00:31.716Z,97014.91
2019-03-29T20:03:07.750Z,97014.99
2019-03-29T20:05:35.930Z,97018.72
2019-03-29T20:08:04.187Z,97012.70
2019-03-29T20:10:32.486Z,97015.94
2019-03-29T20:13:12.718Z,97022.58
2019-03-29T20:15:39.990Z,97013.78
2019-03-29T20:18:07.042Z,97015.86
2019-03-29T20:23:28.377Z,97023.97
2019-03-29T20:25:55.427Z,97017.61
2019-03-29T20:28:23.679Z,97012.67
2019-03-29T20:30:55.661Z,97020.16
2019-03-29T20:33:23.920Z,97012.13
2019-03-29T20:38:26.841Z,97013.59
2019-03-29T20:43:26.870Z,97008.09
2019-03-29T20:45:55.049Z,97007.27
2019-03-29T20:48:39.490Z,97001.44
2019-03-29T20:51:12.500Z,97000.48
2019-03-29T20:53:43.744Z,97006.45
2019-03-29T20:56:13.148Z,97004.23
2019-03-29T20:58:42.319Z,97003.34
2019-03-29T21:01:09.592Z,97004.84
2019-03-29T21:03:52.263Z,96997.58
2019-03-29T21:06:19.459Z,96989.00
2019-03-29T21:09:00.008Z,96987.22
2019-03-29T21:11:29.309Z,96983.37
2019-03-29T21:13:56.211Z,96977.82
2019-03-29T21:16:24.239Z,96975.08
2019-03-29T21:18:51.280Z,96975.41
2019-03-29T21:21:19.460Z,96978.64
2019-03-29T21:23:48.350Z,96978.51
2019-03-29T21:28:52.771Z,96974.32
2019-03-29T21:33:59.884Z,96970.96
2019-03-29T21:36:31.959Z,96971.23
2019-03-29T21:39:05.951Z,96975.35
2019-03-29T21:41:35.369Z,96967.53
2019-03-29T21:44:02.608Z,96963.55
2019-03-29T21:46:29.879Z,96962.11
2019-03-29T21:49:00.178Z,96960.80
2019-03-29T21:54:04.386Z,96960.25
2019-03-29T22:01:50.457Z,96956.80
2019-03-29T22:04:24.552Z,96961.19
2019-03-29T22:06:56.234Z,96961.87
2019-03-29T22:09:36.902Z,96954.86
2019-03-29T22:11:56.470Z,96952.52
2019-03-29T22:14:24.906Z,96948.28
2019-03-29T22:16:54.150Z,96955.11
2019-03-29T22:19:21.187Z,96963.06
2019-03-29T22:21:48.457Z,96955.16
2019-03-29T22:24:24.796Z,96947.27
2019-03-29T22:26:52.990Z,96945.23
2019-03-29T22:29:24.600Z,96940.55
2019-03-29T22:31:57.121Z,96939.55
2019-03-29T22:34:25.658Z,96941.02
2019-03-29T22:39:25.125Z,96928.20
2019-03-29T22:44:35.507Z,96930.03
2019-03-29T22:47:05.929Z,96928.95
2019-03-29T22:49:40.236Z,96936.22
2019-03-29T22:52:09.450Z,96927.42
2019-03-29T22:54:44.985Z,96920.88
2019-03-29T22:57:12.048Z,96926.41
2019-03-29T22:59:45.022Z,96912.77
2019-03-29T23:04:59.609Z,96921.05
2019-03-29T23:07:26.862Z,96918.55
2019-03-29T23:13:01.664Z,96913.05
2019-03-29T23:15:29.872Z,96916.19
2019-03-29T23:20:47.507Z,96910.42
2019-03-29T23:23:15.969Z,96907.13
2019-03-29T23:25:55.437Z,96902.27
2019-03-29T23:28:28.141Z,96898.49
2019-03-29T23:33:48.237Z,96903.09
2019-03-29T23:36:15.473Z,96902.22
2019-03-29T23:38:45.820Z,96902.55
2019-03-29T23:41:13.053Z,96896.19
2019-03-29T23:46:20.984Z,96899.98
2019-03-29T23:51:27.254Z,96902.27
2019-03-29T23:53:55.448Z,96895.34
2019-03-29T23:56:22.809Z,96904.83
2019-03-29T23:58:50.979Z,96896.19
